Time;durP1;ratioP1;P1;durP2;ratioP2;P2;SDS_P1;SDS_P2;PMS_P1;PMS_P2;Temp;Humidity;BMP_temperature;BMP_pressure;BME280_temperature;BME280_humidity;BME280_pressure;Samples;Min_cycle;Max_cycle;Signal;HPM_P1;HPM_P2
2021/01/13 00:01:46;;;;;;;10.65;4.50;;;;;;;17.94;39.31;101693.75;5034469;28;20021;-75
2021/01/13 00:04:12;;;;;;;12.35;4.20;;;;;;;17.98;39.09;101685.59;5034336;28;20080;-75
2021/01/13 00:06:38;;;;;;;11.65;4.72;;;;;;;18.00;39.13;101683.31;5016850;28;20026;-76
2021/01/13 00:09:06;;;;;;;10.57;4.63;;;;;;;17.99;39.25;101681.69;5034381;28;20039;-75
2021/01/13 00:11:32;;;;;;;10.93;5.38;;;;;;;17.98;39.35;101678.09;5034257;28;20567;-75
2021/01/13 00:13:57;;;;;;;12.13;4.35;;;;;;;18.02;39.45;101679.03;5033952;28;20053;-75
2021/01/13 00:16:23;;;;;;;10.48;4.97;;;;;;;18.05;39.43;101676.72;5034215;28;20021;-76
2021/01/13 00:18:49;;;;;;;11.45;5.18;;;;;;;18.05;39.46;101668.44;5033938;28;20148;-75
2021/01/13 00:21:16;;;;;;;10.85;5.18;;;;;;;18.03;39.47;101661.28;5034090;28;20025;-75
2021/01/13 00:23:46;;;;;;;7.35;5.10;;;;;;;18.03;39.23;101666.03;5016200;28;20036;-80
2021/01/13 00:26:22;;;;;;;8.43;5.43;;;;;;;18.06;39.52;101670.06;5034098;28;20021;-75
2021/01/13 00:28:54;;;;;;;9.57;5.55;;;;;;;18.06;39.32;101661.75;5033958;28;20120;-75
2021/01/13 00:31:20;;;;;;;10.30;5.95;;;;;;;18.10;39.59;101659.94;5033720;28;20124;-76
2021/01/13 00:33:52;;;;;;;10.65;6.38;;;;;;;18.10;39.50;101652.44;5033835;28;20449;-75
2021/01/13 00:36:23;;;;;;;10.95;6.25;;;;;;;18.09;39.73;101653.59;5033886;28;20108;-76
2021/01/13 00:38:50;;;;;;;12.25;7.63;;;;;;;17.97;39.69;101651.59;5033666;28;20033;-74
2021/01/13 00:41:15;;;;;;;12.07;7.00;;;;;;;18.09;39.50;101645.31;5015995;28;20051;-75
2021/01/13 00:43:41;;;;;;;13.15;6.43;;;;;;;18.10;39.75;101641.38;5015892;28;20476;-74
2021/01/13 00:46:07;;;;;;;14.68;7.03;;;;;;;18.13;39.81;101642.66;5033652;28;20071;-74
2021/01/13 00:48:33;;;;;;;9.13;6.82;;;;;;;18.16;39.72;101634.50;5015818;28;20021;-74
2021/01/13 00:50:59;;;;;;;13.30;8.30;;;;;;;18.14;39.40;101630.47;5033000;28;20029;-75
2021/01/13 00:53:25;;;;;;;11.00;8.57;;;;;;;18.18;39.59;101623.88;5015747;28;20459;-74
2021/01/13 00:55:51;;;;;;;13.63;7.95;;;;;;;18.16;39.56;101626.19;5033208;28;20052;-74
2021/01/13 00:58:16;;;;;;;13.02;9.18;;;;;;;18.12;39.94;101622.47;5033349;28;20028;-74
2021/01/13 01:00:42;;;;;;;18.35;9.85;;;;;;;18.17;39.71;101616.75;5015251;28;20064;-74
2021/01/13 01:03:08;;;;;;;10.00;8.63;;;;;;;18.22;40.03;101613.75;5015498;28;20026;-75
2021/01/13 01:05:33;;;;;;;15.55;8.65;;;;;;;18.49;39.36;101605.94;5032852;28;20037;-76
2021/01/13 01:07:59;;;;;;;18.67;10.55;;;;;;;18.54;39.11;101611.25;5015479;28;20037;-75
2021/01/13 01:10:30;;;;;;;17.92;8.95;;;;;;;18.54;38.98;101600.16;5033181;28;20053;-75
2021/01/13 01:12:56;;;;;;;23.98;10.32;;;;;;;18.59;39.23;101605.50;5033227;28;20026;-76
2021/01/13 01:15:22;;;;;;;13.85;9.32;;;;;;;18.62;39.07;101599.25;5033130;28;20029;-75
2021/01/13 01:17:48;;;;;;;17.10;9.68;;;;;;;18.49;39.61;101594.84;5015200;28;20049;-76
2021/01/13 01:20:15;;;;;;;15.70;10.88;;;;;;;18.42;39.72;101591.84;5032949;28;20021;-75
2021/01/13 01:22:53;;;;;;;17.92;10.02;;;;;;;18.39;39.79;101587.03;5015278;28;20111;-75
2021/01/13 01:25:19;;;;;;;17.73;10.32;;;;;;;18.41;39.98;101587.47;5032960;28;20022;-75
2021/01/13 01:27:56;;;;;;;23.15;11.07;;;;;;;18.38;39.82;101582.66;5032884;28;20025;-75
2021/01/13 01:30:23;;;;;;;16.23;9.48;;;;;;;18.39;39.87;101575.97;5014893;28;20046;-75
2021/01/13 01:32:49;;;;;;;21.85;10.35;;;;;;;18.40;40.00;101574.81;5032899;28;20357;-75
2021/01/13 01:35:15;;;;;;;15.73;10.30;;;;;;;18.43;40.03;101569.38;5032681;28;20047;-76
2021/01/13 01:37:42;;;;;;;17.30;9.82;;;;;;;18.45;40.06;101566.28;5014599;28;20065;-75
2021/01/13 01:40:10;;;;;;;23.55;12.63;;;;;;;18.42;40.00;101566.94;5032409;28;20384;-75
2021/01/13 01:42:36;;;;;;;14.27;10.32;;;;;;;18.45;40.03;101556.00;5032686;28;20500;-75
2021/01/13 01:45:04;;;;;;;18.60;11.75;;;;;;;18.40;40.12;101559.00;5032714;28;20033;-75
2021/01/13 01:48:01;;;;;;;27.77;14.95;;;;;;;18.36;40.13;101552.53;5032575;28;20026;-75
2021/01/13 01:50:35;;;;;;;20.95;12.23;;;;;;;18.44;40.10;101556.34;4990747;28;20034;-76
2021/01/13 01:53:51;;;;;;;14.15;11.55;;;;;;;18.43;40.26;101549.19;4983197;28;20033;-75
2021/01/13 01:56:24;;;;;;;17.20;11.30;;;;;;;18.28;40.83;101551.50;4988327;28;20151;-76
2021/01/13 01:59:02;;;;;;;16.40;12.02;;;;;;;18.46;40.29;101541.03;5032269;28;20025;-75
2021/01/13 02:01:44;;;;;;;21.52;13.02;;;;;;;18.52;40.17;101549.91;5032437;28;20033;-75
2021/01/13 02:04:14;;;;;;;14.68;11.70;;;;;;;18.47;40.35;101537.09;5032504;28;20491;-74
2021/01/13 02:07:03;;;;;;;14.68;11.75;;;;;;;18.52;40.32;101539.63;5032382;28;20037;-75
2021/01/13 02:09:30;;;;;;;18.17;12.38;;;;;;;18.55;40.00;101538.13;5032234;28;20481;-76
2021/01/13 02:11:58;;;;;;;16.30;12.90;;;;;;;18.60;40.15;101539.88;5032451;28;20029;-75
2021/01/13 02:14:25;;;;;;;21.67;14.30;;;;;;;18.40;40.76;101531.34;5035549;28;20034;-75
2021/01/13 02:16:53;;;;;;;19.38;13.77;;;;;;;18.39;40.91;101535.25;5036366;28;20061;-75
2021/01/13 02:19:46;;;;;;;20.48;14.27;;;;;;;18.34;41.16;101535.47;5036445;28;20116;-75
2021/01/13 02:22:13;;;;;;;18.90;12.35;;;;;;;18.35;41.03;101548.16;5036160;28;20039;-76
2021/01/13 02:24:48;;;;;;;17.95;11.95;;;;;;;18.36;41.25;101529.59;5036264;28;20121;-75
2021/01/13 02:27:41;;;;;;;19.17;13.32;;;;;;;18.37;41.12;101529.28;5036335;28;20037;-75
2021/01/13 02:30:08;;;;;;;15.50;11.98;;;;;;;18.39;41.23;101531.69;5036087;28;20053;-75
2021/01/13 02:32:45;;;;;;;23.08;14.07;;;;;;;18.36;41.19;101530.41;5036180;28;20041;-75
2021/01/13 02:35:18;;;;;;;18.75;12.20;;;;;;;18.39;41.45;101524.19;5035685;28;20068;-75
2021/01/13 02:38:09;;;;;;;16.70;12.30;;;;;;;18.38;41.42;101528.13;5036048;28;20138;-76
2021/01/13 02:40:36;;;;;;;21.23;10.45;;;;;;;18.48;41.24;101521.31;5036011;28;20040;-75
2021/01/13 02:43:09;;;;;;;13.65;10.38;;;;;;;18.54;41.46;101519.91;5035993;28;20037;-76
2021/01/13 02:45:38;;;;;;;12.98;10.32;;;;;;;18.58;41.78;101516.09;5035642;28;20026;-76
2021/01/13 02:48:12;;;;;;;12.80;10.32;;;;;;;18.65;41.87;101518.25;5035880;28;20033;-75
2021/01/13 02:50:42;;;;;;;15.88;11.15;;;;;;;18.72;41.67;101509.41;5035856;28;20055;-75
2021/01/13 02:53:17;;;;;;;17.50;10.77;;;;;;;18.75;41.88;101515.06;5035785;28;20036;-75
2021/01/13 02:55:48;;;;;;;12.23;9.43;;;;;;;18.79;41.79;101513.19;5035582;28;20423;-75
2021/01/13 02:58:19;;;;;;;10.77;9.10;;;;;;;18.84;41.79;101510.19;5035717;28;20116;-76
2021/01/13 03:00:45;;;;;;;10.75;9.27;;;;;;;18.92;41.96;101499.31;5035573;28;20055;-75
2021/01/13 03:03:15;;;;;;;10.70;8.57;;;;;;;18.97;41.87;101505.44;5017758;28;20611;-76
2021/01/13 03:05:42;;;;;;;13.23;8.57;;;;;;;18.99;42.02;101503.09;5035613;28;20030;-75
2021/01/13 03:08:11;;;;;;;11.07;8.80;;;;;;;18.99;42.25;101492.03;5350990;22;20104;-76
2021/01/13 03:10:38;;;;;;;12.55;8.80;;;;;;;19.04;42.07;101496.50;5015709;28;20407;-75
2021/01/13 03:13:07;;;;;;;10.38;8.20;;;;;;;18.98;42.31;101490.41;5015710;28;20038;-75
2021/01/13 03:15:35;;;;;;;9.68;7.63;;;;;;;18.99;42.54;101489.25;4982086;28;20029;-76
2021/01/13 03:18:09;;;;;;;9.95;7.88;;;;;;;19.02;42.50;101490.50;5015520;28;20034;-76
2021/01/13 03:20:49;;;;;;;8.93;7.43;;;;;;;19.05;42.76;101490.63;4998000;28;20029;-76
2021/01/13 03:23:21;;;;;;;14.75;8.65;;;;;;;19.13;42.32;101494.41;4997983;28;20037;-75
2021/01/13 03:25:59;;;;;;;9.82;7.90;;;;;;;19.17;42.34;101492.53;5015248;28;20029;-76
2021/01/13 03:28:33;;;;;;;10.45;7.60;;;;;;;19.20;42.61;101488.25;5015515;28;20030;-75
2021/01/13 03:30:59;;;;;;;15.35;9.00;;;;;;;19.25;42.62;101490.75;5015415;28;20026;-76
2021/01/13 03:33:24;;;;;;;10.07;8.25;;;;;;;19.28;42.54;101488.09;5015326;28;20057;-76
2021/01/13 03:36:09;;;;;;;10.10;6.88;;;;;;;19.26;42.66;101484.06;4997676;28;20107;-75
2021/01/13 03:38:55;;;;;;;10.63;6.80;;;;;;;19.24;42.80;101476.09;5015195;28;20026;-75
2021/01/13 03:41:21;;;;;;;8.55;6.00;;;;;;;19.24;42.86;101473.31;4997611;28;20044;-75
2021/01/13 03:43:53;;;;;;;7.38;5.93;;;;;;;19.31;42.68;101470.75;4997557;28;20026;-79
2021/01/13 03:46:18;;;;;;;8.43;5.90;;;;;;;19.60;42.38;101468.78;4997879;28;20384;-76
2021/01/13 03:48:50;;;;;;;5.53;4.78;;;;;;;19.57;42.47;101472.25;5014688;28;20105;-76
2021/01/13 03:51:25;;;;;;;6.15;4.78;;;;;;;19.43;42.99;101458.81;5015051;28;20022;-75
2021/01/13 03:53:52;;;;;;;6.93;4.80;;;;;;;19.47;42.82;101462.47;4997356;28;20030;-75
2021/01/13 03:56:25;;;;;;;6.40;4.70;;;;;;;19.48;43.03;101460.50;4997496;28;20083;-76
2021/01/13 03:58:51;;;;;;;8.35;4.85;;;;;;;19.54;43.11;101456.31;4997203;28;20029;-76
2021/01/13 04:01:22;;;;;;;6.72;4.97;;;;;;;19.53;43.21;101457.47;5014391;28;20121;-76
2021/01/13 04:04:10;;;;;;;5.80;4.25;;;;;;;19.58;42.99;101460.03;5014771;28;20021;-76
2021/01/13 04:06:44;;;;;;;6.68;4.22;;;;;;;19.64;42.69;101451.06;5014720;28;20030;-76
2021/01/13 04:09:15;;;;;;;6.28;4.53;;;;;;;19.74;42.92;101452.50;5014519;28;20041;-75
2021/01/13 04:11:49;;;;;;;6.65;4.18;;;;;;;19.91;42.61;101451.34;5014720;28;20479;-76
2021/01/13 04:14:18;;;;;;;7.07;4.45;;;;;;;19.99;42.49;101457.84;5014568;28;20022;-76
2021/01/13 04:16:45;;;;;;;5.07;4.00;;;;;;;20.03;42.54;101453.22;5014491;28;20420;-76
2021/01/13 04:19:10;;;;;;;8.02;4.63;;;;;;;19.99;42.63;101449.53;5014374;28;20100;-76
2021/01/13 04:21:36;;;;;;;5.68;4.30;;;;;;;20.03;42.50;101448.47;4996797;28;20125;-75
2021/01/13 04:24:03;;;;;;;8.50;4.85;;;;;;;20.03;42.89;101450.44;5014371;28;20053;-76
2021/01/13 04:26:30;;;;;;;5.57;3.90;;;;;;;19.99;42.93;101443.97;5014360;28;20025;-76
2021/01/13 04:28:56;;;;;;;5.72;4.50;;;;;;;20.05;42.87;101448.09;5014179;28;20030;-76
2021/01/13 04:31:24;;;;;;;5.72;4.35;;;;;;;20.04;42.84;101443.72;5014260;28;20022;-76
2021/01/13 04:33:50;;;;;;;4.65;4.15;;;;;;;20.10;42.75;101440.31;4996554;28;20029;-75
2021/01/13 04:36:17;;;;;;;5.18;4.03;;;;;;;20.07;42.98;101445.75;4979663;28;20088;-76
2021/01/13 04:38:44;;;;;;;5.95;4.60;;;;;;;20.07;43.06;101440.22;5014015;28;20026;-76
2021/01/13 04:41:17;;;;;;;6.93;3.78;;;;;;;20.10;43.11;101428.38;4996275;28;20412;-76
2021/01/13 04:43:54;;;;;;;5.75;4.25;;;;;;;20.10;43.17;101440.31;5014064;28;20087;-76
2021/01/13 04:46:28;;;;;;;4.95;3.78;;;;;;;20.11;42.97;101430.81;4996369;28;20030;-76
2021/01/13 04:49:16;;;;;;;5.25;3.58;;;;;;;20.02;43.48;101440.47;5013915;28;20026;-76
2021/01/13 04:51:43;;;;;;;4.68;3.40;;;;;;;19.99;43.67;101428.16;5013859;28;20034;-76
2021/01/13 04:54:11;;;;;;;3.85;3.22;;;;;;;20.02;43.65;101432.16;5013800;28;20053;-76
2021/01/13 04:56:58;;;;;;;3.70;2.83;;;;;;;20.12;43.42;101421.31;5013748;28;20033;-76
2021/01/13 04:59:36;;;;;;;3.67;2.78;;;;;;;20.04;43.92;101424.31;5013702;28;20471;-76
2021/01/13 05:02:05;;;;;;;3.58;2.75;;;;;;;20.09;43.92;101422.03;5013741;28;20030;-76
2021/01/13 05:04:52;;;;;;;5.45;3.00;;;;;;;20.06;44.16;101425.53;4996015;28;20045;-76
2021/01/13 05:07:32;;;;;;;6.25;2.55;;;;;;;19.97;44.65;101426.91;5013709;28;20025;-76
2021/01/13 05:10:09;;;;;;;5.45;2.90;;;;;;;20.13;44.31;101419.34;5013605;28;20034;-76
2021/01/13 05:12:47;;;;;;;5.93;2.72;;;;;;;20.04;44.47;101419.56;5013630;28;20026;-76
2021/01/13 05:15:27;;;;;;;4.05;2.50;;;;;;;20.05;44.74;101418.38;5013502;28;20081;-76
2021/01/13 05:18:11;;;;;;;8.07;2.58;;;;;;;19.83;45.42;101424.59;5013453;28;20032;-76
2021/01/13 05:20:41;;;;;;;4.70;2.58;;;;;;;19.93;45.00;101424.84;5013325;28;20041;-76
2021/01/13 05:23:12;;;;;;;3.55;2.03;;;;;;;19.99;44.77;101411.50;4995801;28;20053;-76
2021/01/13 05:25:43;;;;;;;2.92;1.63;;;;;;;19.89;45.31;101421.19;5013330;28;20472;-76
2021/01/13 05:28:17;;;;;;;2.72;1.92;;;;;;;20.09;44.70;101413.72;5013250;28;20052;-76
2021/01/13 05:30:45;;;;;;;3.38;1.80;;;;;;;19.91;45.50;101416.06;5013274;28;20034;-76
2021/01/13 05:33:22;;;;;;;4.53;2.28;;;;;;;20.16;45.12;101413.06;5013234;28;20018;-76
2021/01/13 05:35:57;;;;;;;7.65;2.55;;;;;;;19.95;45.52;101410.63;4995687;28;20485;-76
2021/01/13 05:38:37;;;;;;;2.70;1.55;;;;;;;19.98;45.51;101420.19;5013085;28;20026;-76
2021/01/13 05:41:10;;;;;;;1.85;1.23;;;;;;;20.04;45.64;101407.66;5013119;28;20052;-76
2021/01/13 05:43:41;;;;;;;2.70;1.60;;;;;;;20.08;45.63;101409.31;5013008;28;20025;-75
2021/01/13 05:46:11;;;;;;;2.20;1.60;;;;;;;20.09;45.58;101401.81;5013068;28;20026;-75
2021/01/13 05:48:40;;;;;;;2.67;1.65;;;;;;;20.06;45.77;101410.88;5012143;28;20117;-75
2021/01/13 05:51:06;;;;;;;1.70;1.27;;;;;;;19.89;46.58;101400.97;4995358;28;20492;-75
2021/01/13 05:53:31;;;;;;;2.22;1.38;;;;;;;20.11;45.67;101402.28;4995366;28;20090;-76
2021/01/13 05:56:01;;;;;;;4.45;1.60;;;;;;;19.95;46.42;101403.13;4995197;28;20116;-75
2021/01/13 05:58:28;;;;;;;1.60;1.30;;;;;;;19.99;46.30;101405.16;4995092;28;20029;-75
2021/01/13 06:00:59;;;;;;;7.47;2.10;;;;;;;19.95;46.30;101405.09;4978842;28;20045;-75
2021/01/13 06:03:29;;;;;;;2.25;1.30;;;;;;;19.93;46.44;101397.09;5012895;28;20370;-75
2021/01/13 06:05:57;;;;;;;2.45;1.20;;;;;;;20.10;46.14;101401.47;4995324;28;20030;-75
2021/01/13 06:08:30;;;;;;;2.22;1.50;;;;;;;19.85;47.01;101403.66;5012536;28;20551;-76
2021/01/13 06:10:58;;;;;;;2.40;1.45;;;;;;;19.91;46.81;101399.44;4995058;28;20496;-76
2021/01/13 06:13:28;;;;;;;1.52;1.20;;;;;;;19.90;46.77;101403.38;4979116;28;20057;-77
2021/01/13 06:15:59;;;;;;;2.63;1.40;;;;;;;19.89;46.97;101407.31;5012816;28;20056;-82
2021/01/13 06:18:26;;;;;;;2.00;1.30;;;;;;;19.93;47.02;101402.66;5012746;28;20014;-76
2021/01/13 06:20:55;;;;;;;1.45;1.02;;;;;;;20.00;46.84;101404.78;5012555;28;20064;-76
2021/01/13 06:23:22;;;;;;;3.10;1.37;;;;;;;20.03;46.75;101406.84;5012650;28;20034;-76
2021/01/13 06:25:52;;;;;;;2.95;1.40;;;;;;;20.02;46.82;101396.91;5012062;28;20026;-76
2021/01/13 06:28:27;;;;;;;2.60;0.90;;;;;;;19.74;47.83;101402.59;4995107;28;20034;-76
2021/01/13 06:31:07;;;;;;;2.25;1.13;;;;;;;20.00;47.16;101399.25;5012331;28;20034;-76
2021/01/13 06:33:51;;;;;;;1.27;0.90;;;;;;;19.90;47.30;101397.84;5012569;28;20022;-76
2021/01/13 06:36:28;;;;;;;2.35;1.30;;;;;;;19.83;47.29;101405.97;5012240;28;20068;-76
2021/01/13 06:38:56;;;;;;;2.42;1.30;;;;;;;19.93;47.15;101402.66;5012402;28;20033;-76
2021/01/13 06:41:23;;;;;;;1.77;1.00;;;;;;;19.95;47.19;101403.13;5012421;28;20030;-76
2021/01/13 06:44:00;;;;;;;1.08;0.90;;;;;;;19.55;48.42;101419.91;5012435;28;20050;-76
2021/01/13 06:46:27;;;;;;;1.90;0.80;;;;;;;20.01;47.20;101411.94;5012440;28;20083;-76
2021/01/13 06:48:54;;;;;;;3.50;1.35;;;;;;;20.01;47.18;101411.13;5012423;28;20027;-76
2021/01/13 06:51:20;;;;;;;1.25;1.02;;;;;;;20.04;47.09;101419.56;5012387;28;20109;-76
2021/01/13 06:53:47;;;;;;;1.65;1.10;;;;;;;20.17;46.72;101414.69;5012370;28;20037;-76
2021/01/13 06:56:14;;;;;;;3.00;1.25;;;;;;;20.16;46.55;101415.84;5013632;28;20030;-81
2021/01/13 06:58:55;;;;;;;4.13;1.20;;;;;;;20.10;47.03;101417.28;5018750;28;20025;-80
2021/01/13 07:01:20;;;;;;;2.45;1.15;;;;;;;20.03;47.25;101422.69;5018280;28;20052;-75
2021/01/13 07:03:55;;;;;;;1.70;1.00;;;;;;;20.12;47.02;101409.44;5029729;28;20026;-76
2021/01/13 07:06:21;;;;;;;1.70;1.05;;;;;;;20.13;46.94;101419.34;5024689;28;20017;-76
2021/01/13 07:08:46;;;;;;;4.60;1.90;;;;;;;20.18;46.83;101416.31;5034590;28;20044;-81
2021/01/13 07:11:12;;;;;;;3.80;1.10;;;;;;;20.16;46.97;101415.84;5052744;28;20062;-76
2021/01/13 07:13:47;;;;;;;2.80;1.48;;;;;;;20.18;46.86;101419.88;5055428;28;20420;-75
2021/01/13 07:16:14;;;;;;;2.13;1.30;;;;;;;20.21;46.72;101423.91;5055462;28;20055;-76
2021/01/13 07:18:40;;;;;;;3.20;1.80;;;;;;;20.26;46.78;101414.50;5055281;28;20025;-76
2021/01/13 07:21:07;;;;;;;3.22;1.70;;;;;;;20.24;46.77;101414.84;5055293;28;20486;-77
2021/01/13 07:23:33;;;;;;;5.03;1.60;;;;;;;20.32;46.56;101413.81;5055409;28;20110;-77
2021/01/13 07:26:00;;;;;;;10.30;5.28;;;;;;;20.36;46.51;101419.47;5055241;28;20049;-76
2021/01/13 07:28:26;;;;;;;2.47;1.33;;;;;;;20.08;47.38;101423.19;5046327;28;20026;-77
2021/01/13 07:30:53;;;;;;;2.47;1.63;;;;;;;20.12;47.26;101409.44;5046468;28;20108;-77
2021/01/13 07:33:20;;;;;;;5.55;3.53;;;;;;;20.31;46.67;101416.97;5045724;28;20021;-77
2021/01/13 07:35:50;;;;;;;4.32;1.80;;;;;;;20.05;47.69;101414.81;5044523;28;20020;-78
2021/01/13 07:38:15;;;;;;;;;;;;;;;19.78;48.45;101428.44;5043969;28;20028;-77
2021/01/13 07:40:59;;;;;;;3.03;2.22;;;;;;;19.85;48.26;101417.50;5043181;28;20283;-80
2021/01/13 07:44:02;;;;;;;9.27;8.50;;;;;;;20.00;47.85;101417.84;5040581;28;20032;-75
2021/01/13 07:46:30;;;;;;;3.70;2.40;;;;;;;19.92;48.09;101423.22;5039435;28;20033;-74
2021/01/13 07:49:21;;;;;;;5.13;2.97;;;;;;;19.88;48.06;101427.91;5017669;28;20380;-74
2021/01/13 07:51:54;;;;;;;8.95;2.72;;;;;;;20.01;47.90;101427.78;5017020;28;20425;-74
2021/01/13 07:54:34;;;;;;;6.07;5.13;;;;;;;20.19;47.28;101415.13;5001094;28;20029;-74
2021/01/13 07:57:01;;;;;;;24.63;22.25;;;;;;;20.09;47.54;101410.13;5024862;28;20033;-76
2021/01/13 07:59:34;;;;;;;4.05;2.30;;;;;;;20.15;47.49;101405.91;5045467;28;20045;-74
2021/01/13 08:02:28;;;;;;;6.03;5.30;;;;;;;20.17;47.33;101404.38;5045671;28;20384;-75
2021/01/13 08:05:28;;;;;;;5.93;2.72;;;;;;;20.16;47.54;101413.06;5036617;28;20036;-74
2021/01/13 08:08:08;;;;;;;2.13;1.27;;;;;;;19.95;47.99;101405.88;5050938;28;20080;-75
2021/01/13 08:10:36;;;;;;;2.42;1.40;;;;;;;20.27;47.19;101405.81;5015728;28;20029;-76
2021/01/13 08:13:23;;;;;;;1.95;1.20;;;;;;;20.14;47.57;101413.44;5000762;28;20040;-82
2021/01/13 08:15:52;;;;;;;4.40;2.17;;;;;;;20.34;47.04;101414.28;4994970;28;20123;-73
2021/01/13 08:18:53;;;;;;;2.75;1.35;;;;;;;20.41;46.69;101422.78;4996420;28;20031;-73
2021/01/13 08:21:40;;;;;;;3.00;1.50;;;;;;;20.49;46.44;101419.00;5014329;28;20071;-74
2021/01/13 08:24:09;;;;;;;4.38;2.22;;;;;;;20.39;46.68;101430.63;5014377;28;20125;-75
2021/01/13 08:26:38;;;;;;;3.10;1.90;;;;;;;20.33;47.03;101447.94;5013934;28;20526;-74
2021/01/13 08:29:06;;;;;;;3.60;1.55;;;;;;;20.17;47.56;101450.75;4995788;28;20037;-73
2021/01/13 08:31:33;;;;;;;2.38;1.70;;;;;;;20.26;47.31;101456.94;4996244;28;20472;-73
2021/01/13 08:34:06;;;;;;;3.58;1.52;;;;;;;20.18;47.43;101461.50;5014149;28;20026;-74
2021/01/13 08:36:32;;;;;;;5.32;1.88;;;;;;;20.10;47.99;101448.63;4996422;28;20156;-79
2021/01/13 08:39:25;;;;;;;3.05;1.70;;;;;;;20.24;47.36;101450.91;5014166;28;20060;-73
2021/01/13 08:41:51;;;;;;;3.05;1.35;;;;;;;20.34;47.05;101453.16;4989230;28;20092;-77
2021/01/13 08:44:18;;;;;;;3.28;1.48;;;;;;;20.24;47.59;101462.81;4988876;28;20026;-77
2021/01/13 08:47:00;;;;;;;2.70;1.40;;;;;;;20.26;47.01;101465.25;5013637;28;20053;-75
2021/01/13 08:49:31;;;;;;;1.92;1.30;;;;;;;20.22;47.59;101465.16;5013688;28;20022;-74
2021/01/13 08:52:15;;;;;;;3.20;1.40;;;;;;;19.62;49.22;101472.78;5012112;28;20152;-75
2021/01/13 08:55:10;;;;;;;7.13;1.65;;;;;;;19.89;48.46;101465.56;4991539;28;20028;-75
2021/01/13 08:57:52;;;;;;;7.00;1.85;;;;;;;20.34;47.24;101477.31;4990945;28;20635;-75
2021/01/13 09:00:19;;;;;;;6.15;1.88;;;;;;;20.45;46.72;101479.19;5004977;28;20038;-74
2021/01/13 09:03:01;;;;;;;5.72;1.73;;;;;;;20.37;46.95;101484.91;5011424;28;20449;-74
2021/01/13 09:05:32;;;;;;;5.05;2.03;;;;;;;20.03;47.76;101478.19;5012739;28;20492;-74
2021/01/13 09:07:59;;;;;;;2.35;1.67;;;;;;;20.23;47.69;101482.59;5013254;28;20057;-74
2021/01/13 09:10:45;;;;;;;2.63;1.52;;;;;;;19.77;49.01;101492.56;4993971;28;20033;-74
2021/01/13 09:13:29;;;;;;;4.90;1.50;;;;;;;19.89;48.57;101484.97;4995290;28;20384;-74
2021/01/13 09:15:56;;;;;;;4.22;1.70;;;;;;;20.04;48.47;101475.03;5013230;28;20041;-75
2021/01/13 09:18:23;;;;;;;3.75;1.83;;;;;;;20.09;48.13;101487.81;5012400;28;20017;-75
2021/01/13 09:20:50;;;;;;;8.18;2.03;;;;;;;19.88;48.76;101493.66;5013162;28;20427;-75
2021/01/13 09:23:22;;;;;;;7.88;1.85;;;;;;;19.82;48.85;101478.44;4989890;28;20172;-75
2021/01/13 09:25:56;;;;;;;2.35;1.35;;;;;;;19.80;49.12;101489.06;5012198;28;20028;-75
2021/01/13 09:28:22;;;;;;;5.40;1.38;;;;;;;19.51;49.67;101484.75;4995785;28;20052;-76
2021/01/13 09:30:48;;;;;;;5.00;2.00;;;;;;;19.61;49.56;101478.69;5013156;28;20473;-75
2021/01/13 09:33:16;;;;;;;2.13;1.27;;;;;;;19.93;48.57;101480.31;5013188;28;20026;-75
2021/01/13 09:35:43;;;;;;;3.78;1.95;;;;;;;19.61;49.70;101479.50;4993539;28;20033;-76
2021/01/13 09:38:10;;;;;;;5.05;1.63;;;;;;;19.90;48.72;101471.91;4994550;28;20033;-77
2021/01/13 09:40:59;;;;;;;4.28;1.77;;;;;;;19.85;49.03;101470.19;4995159;28;20400;-75
2021/01/13 09:43:37;;;;;;;1.45;0.98;;;;;;;19.65;49.13;101463.78;5012884;28;20030;-75
2021/01/13 09:46:23;;;;;;;3.15;1.50;;;;;;;19.63;49.63;101465.28;4994197;28;20045;-75
2021/01/13 09:49:05;;;;;;;2.45;1.10;;;;;;;19.71;49.75;101464.28;4998844;28;20503;-74
2021/01/13 09:51:31;;;;;;;2.25;1.00;;;;;;;19.57;50.04;101458.38;4979046;28;20033;-75
2021/01/13 09:53:59;;;;;;;10.48;7.53;;;;;;;19.57;49.81;101455.63;5011843;28;20057;-74
2021/01/13 09:56:26;;;;;;;2.92;1.10;;;;;;;19.79;49.11;101463.31;5011189;28;20018;-77
2021/01/13 09:58:52;;;;;;;1.83;1.00;;;;;;;19.66;49.32;101456.25;4995057;28;20065;-74
2021/01/13 10:01:20;;;;;;;2.55;0.90;;;;;;;19.91;48.85;101465.19;5011084;28;20034;-74
2021/01/13 10:03:50;;;;;;;10.70;9.75;;;;;;;19.65;49.65;101462.97;5012623;28;20065;-75
2021/01/13 10:06:22;;;;;;;2.95;1.20;;;;;;;20.02;48.49;101454.34;5012692;28;20026;-75
2021/01/13 10:08:49;;;;;;;4.07;2.65;;;;;;;19.87;48.89;101451.22;4994797;28;20089;-75
2021/01/13 10:11:16;;;;;;;4.22;1.13;;;;;;;19.86;49.09;101452.41;5012687;28;20148;-79
2021/01/13 10:13:44;;;;;;;2.03;1.00;;;;;;;20.09;48.14;101452.53;5012281;28;20026;-74
2021/01/13 10:16:12;;;;;;;12.82;11.82;;;;;;;19.85;48.88;101450.78;5011740;28;20026;-76
2021/01/13 10:18:58;;;;;;;3.13;2.70;;;;;;;19.73;49.55;101447.31;4994086;28;20026;-83
2021/01/13 10:21:25;;;;;;;1.90;1.52;;;;;;;19.68;49.74;101434.53;5000189;28;20473;-75
2021/01/13 10:23:52;;;;;;;4.28;3.35;;;;;;;19.57;50.16;101434.28;4994858;28;20096;-74
2021/01/13 10:26:18;;;;;;;2.75;1.38;;;;;;;19.61;49.97;101450.97;4992727;28;20091;-75
2021/01/13 10:28:44;;;;;;;3.80;1.10;;;;;;;19.66;49.77;101439.63;4994245;28;20031;-75
2021/01/13 10:31:23;;;;;;;2.05;1.00;;;;;;;19.80;49.03;101437.22;4994996;28;20117;-74
2021/01/13 10:33:50;;;;;;;3.80;1.17;;;;;;;19.56;49.84;101437.34;4980988;28;20034;-75
2021/01/13 10:36:39;;;;;;;1.27;0.95;;;;;;;19.39;50.58;101446.81;5011052;28;20038;-91
2021/01/13 10:39:14;;;;;;;4.20;2.15;;;;;;;19.57;50.16;101445.34;4985574;28;20034;-84
2021/01/13 10:41:45;;;;;;;3.03;1.60;;;;;;;19.59;50.04;101456.09;5016141;28;20058;-76
2021/01/13 10:44:15;;;;;;;3.20;1.73;;;;;;;19.98;48.79;101453.47;5016053;28;20033;-75
2021/01/13 10:46:46;;;;;;;4.55;2.05;;;;;;;20.01;48.68;101452.75;5015409;28;20034;-76
2021/01/13 10:49:35;;;;;;;4.57;2.17;;;;;;;19.95;49.11;101458.59;4997987;28;20041;-76
2021/01/13 10:52:11;;;;;;;6.28;5.07;;;;;;;20.06;48.47;101458.03;5009179;28;20053;-81
2021/01/13 10:54:40;;;;;;;3.08;2.00;;;;;;;19.76;49.73;101464.03;5015040;28;20038;-76
2021/01/13 10:57:07;;;;;;;4.28;2.75;;;;;;;20.11;48.37;101457.75;4964665;28;20051;-81
2021/01/13 10:59:34;;;;;;;7.53;3.60;;;;;;;20.00;48.90;101457.50;5014480;28;20115;-76
2021/01/13 11:02:04;;;;;;;2.85;1.92;;;;;;;19.92;49.33;101445.41;5015723;28;20049;-76
2021/01/13 11:04:31;;;;;;;2.47;1.90;;;;;;;20.15;48.61;101459.44;5015864;28;20021;-82
2021/01/13 11:07:03;;;;;;;3.95;2.55;;;;;;;19.63;50.13;101462.50;5013256;28;20034;-76
2021/01/13 11:09:29;;;;;;;3.92;2.25;;;;;;;20.09;49.06;101460.06;5017300;28;20076;-81
2021/01/13 11:11:57;;;;;;;2.28;1.60;;;;;;;20.21;48.74;101463.53;5019927;28;20191;-82
2021/01/13 11:14:40;;;;;;;4.15;1.58;;;;;;;20.10;48.95;101467.22;5019819;28;20071;-78
2021/01/13 11:17:25;;;;;;;1.83;1.23;;;;;;;20.09;48.88;101448.97;5002474;28;20022;-81
2021/01/13 11:19:53;;;;;;;3.05;1.45;;;;;;;20.44;47.87;101455.38;5005309;28;20041;-79
2021/01/13 11:22:44;;;;;;;1.83;1.40;;;;;;;20.50;48.06;101459.47;5004515;28;20563;-81
2021/01/13 11:25:32;;;;;;;2.40;1.50;;;;;;;19.94;49.49;101464.47;5004715;28;20432;-81
2021/01/13 11:28:01;;;;;;;4.82;1.33;;;;;;;20.59;47.70;101450.94;5019225;28;20022;-82
2021/01/13 11:30:28;;;;;;;1.48;1.20;;;;;;;20.38;47.97;101454.00;5020394;28;20032;-75
2021/01/13 11:32:56;;;;;;;2.55;1.48;;;;;;;20.75;47.40;101457.22;4997915;28;20033;-79
2021/01/13 11:35:34;;;;;;;1.92;1.30;;;;;;;20.93;46.82;101454.84;5014496;28;20535;-75
2021/01/13 11:38:19;;;;;;;3.42;1.50;;;;;;;21.03;46.69;101470.91;4997002;28;20040;-85
2021/01/13 11:41:12;;;;;;;2.58;1.60;;;;;;;20.73;47.71;101456.00;5007243;28;20061;-78
2021/01/13 11:44:11;;;;;;;2.65;1.70;;;;;;;20.97;46.92;101461.25;4998102;28;20027;-76
2021/01/13 11:46:44;;;;;;;6.20;1.92;;;;;;;20.52;48.14;101458.31;4999051;28;20693;-82